sensor_id;sensor_type;location;lat;lon;timestamp;P1;durP1;ratioP1;P2;durP2;ratioP2
18322;SDS011;9287;49.456;11.064;2022-08-19T00:02:15;18.30;;;16.38;;
18322;SDS011;9287;49.456;11.064;2022-08-19T00:04:44;19.08;;;17.27;;
18322;SDS011;9287;49.456;11.064;2022-08-19T00:07:14;19.27;;;17.58;;
18322;SDS011;9287;49.456;11.064;2022-08-19T00:09:41;19.95;;;18.00;;
18322;SDS011;9287;49.456;11.064;2022-08-19T00:12:09;19.20;;;17.40;;
18322;SDS011;9287;49.456;11.064;2022-08-19T00:14:37;18.60;;;16.65;;
18322;SDS011;9287;49.456;11.064;2022-08-19T00:17:05;20.67;;;18.65;;
18322;SDS011;9287;49.456;11.064;2022-08-19T00:19:32;19.02;;;17.25;;
18322;SDS011;9287;49.456;11.064;2022-08-19T00:22:01;18.98;;;17.08;;
18322;SDS011;9287;49.456;11.064;2022-08-19T00:24:29;20.23;;;18.38;;
18322;SDS011;9287;49.456;11.064;2022-08-19T00:26:57;19.88;;;17.90;;
18322;SDS011;9287;49.456;11.064;2022-08-19T00:29:47;19.13;;;17.42;;
18322;SDS011;9287;49.456;11.064;2022-08-19T00:32:18;21.77;;;19.58;;
18322;SDS011;9287;49.456;11.064;2022-08-19T00:34:46;20.83;;;18.70;;
18322;SDS011;9287;49.456;11.064;2022-08-19T00:37:14;20.02;;;18.17;;
18322;SDS011;9287;49.456;11.064;2022-08-19T00:39:42;22.83;;;20.42;;
18322;SDS011;9287;49.456;11.064;2022-08-19T00:42:14;21.83;;;19.73;;
18322;SDS011;9287;49.456;11.064;2022-08-19T00:44:41;19.65;;;17.75;;
18322;SDS011;9287;49.456;11.064;2022-08-19T00:47:09;21.85;;;19.73;;
18322;SDS011;9287;49.456;11.064;2022-08-19T00:49:41;20.73;;;18.83;;
18322;SDS011;9287;49.456;11.064;2022-08-19T00:52:13;20.27;;;18.40;;
18322;SDS011;9287;49.456;11.064;2022-08-19T00:54:42;21.45;;;19.45;;
18322;SDS011;9287;49.456;11.064;2022-08-19T00:57:17;20.63;;;18.45;;
18322;SDS011;9287;49.456;11.064;2022-08-19T00:59:47;21.00;;;18.98;;
18322;SDS011;9287;49.456;11.064;2022-08-19T01:02:27;21.08;;;19.08;;
18322;SDS011;9287;49.456;11.064;2022-08-19T01:04:55;21.80;;;19.70;;
18322;SDS011;9287;49.456;11.064;2022-08-19T01:07:23;20.88;;;19.02;;
18322;SDS011;9287;49.456;11.064;2022-08-19T01:09:52;22.50;;;20.08;;
18322;SDS011;9287;49.456;11.064;2022-08-19T01:12:19;21.30;;;19.10;;
18322;SDS011;9287;49.456;11.064;2022-08-19T01:14:47;22.80;;;20.42;;
18322;SDS011;9287;49.456;11.064;2022-08-19T01:17:15;21.58;;;19.58;;
18322;SDS011;9287;49.456;11.064;2022-08-19T01:19:44;22.63;;;20.33;;
18322;SDS011;9287;49.456;11.064;2022-08-19T01:22:14;22.27;;;20.23;;
18322;SDS011;9287;49.456;11.064;2022-08-19T01:24:53;19.92;;;18.10;;
18322;SDS011;9287;49.456;11.064;2022-08-19T01:27:21;20.63;;;18.75;;
18322;SDS011;9287;49.456;11.064;2022-08-19T01:29:49;21.70;;;19.63;;
18322;SDS011;9287;49.456;11.064;2022-08-19T01:32:17;20.77;;;18.77;;
18322;SDS011;9287;49.456;11.064;2022-08-19T01:34:59;21.77;;;19.67;;
18322;SDS011;9287;49.456;11.064;2022-08-19T01:37:28;20.95;;;19.00;;
18322;SDS011;9287;49.456;11.064;2022-08-19T01:39:57;22.13;;;20.02;;
18322;SDS011;9287;49.456;11.064;2022-08-19T01:42:25;21.73;;;19.70;;
18322;SDS011;9287;49.456;11.064;2022-08-19T01:44:55;23.17;;;20.67;;
18322;SDS011;9287;49.456;11.064;2022-08-19T01:47:23;22.02;;;19.90;;
18322;SDS011;9287;49.456;11.064;2022-08-19T01:49:51;22.75;;;20.45;;
18322;SDS011;9287;49.456;11.064;2022-08-19T01:52:18;22.92;;;20.52;;
18322;SDS011;9287;49.456;11.064;2022-08-19T01:54:46;24.35;;;21.98;;
18322;SDS011;9287;49.456;11.064;2022-08-19T01:57:14;22.10;;;19.85;;
18322;SDS011;9287;49.456;11.064;2022-08-19T01:59:42;22.73;;;20.38;;
18322;SDS011;9287;49.456;11.064;2022-08-19T02:02:11;21.52;;;19.45;;
18322;SDS011;9287;49.456;11.064;2022-08-19T02:04:39;23.27;;;20.95;;
18322;SDS011;9287;49.456;11.064;2022-08-19T02:07:07;22.17;;;20.02;;
18322;SDS011;9287;49.456;11.064;2022-08-19T02:09:35;22.60;;;20.50;;
18322;SDS011;9287;49.456;11.064;2022-08-19T02:12:03;22.40;;;20.27;;
18322;SDS011;9287;49.456;11.064;2022-08-19T02:14:32;21.58;;;19.48;;
18322;SDS011;9287;49.456;11.064;2022-08-19T02:17:00;23.92;;;21.60;;
18322;SDS011;9287;49.456;11.064;2022-08-19T02:19:28;25.58;;;22.95;;
18322;SDS011;9287;49.456;11.064;2022-08-19T02:21:58;24.80;;;22.27;;
18322;SDS011;9287;49.456;11.064;2022-08-19T02:24:26;22.73;;;20.33;;
18322;SDS011;9287;49.456;11.064;2022-08-19T02:26:53;26.25;;;23.63;;
18322;SDS011;9287;49.456;11.064;2022-08-19T02:29:21;25.90;;;23.30;;
18322;SDS011;9287;49.456;11.064;2022-08-19T02:31:50;24.02;;;21.55;;
18322;SDS011;9287;49.456;11.064;2022-08-19T02:34:17;25.65;;;23.15;;
18322;SDS011;9287;49.456;11.064;2022-08-19T02:36:45;24.92;;;22.13;;
18322;SDS011;9287;49.456;11.064;2022-08-19T02:39:17;22.80;;;20.60;;
18322;SDS011;9287;49.456;11.064;2022-08-19T02:41:44;24.27;;;21.83;;
18322;SDS011;9287;49.456;11.064;2022-08-19T02:44:12;23.73;;;21.38;;
18322;SDS011;9287;49.456;11.064;2022-08-19T02:46:58;25.05;;;22.52;;
18322;SDS011;9287;49.456;11.064;2022-08-19T02:49:25;25.90;;;23.20;;
18322;SDS011;9287;49.456;11.064;2022-08-19T02:51:53;25.98;;;23.45;;
18322;SDS011;9287;49.456;11.064;2022-08-19T02:54:21;24.02;;;21.73;;
18322;SDS011;9287;49.456;11.064;2022-08-19T02:56:48;24.67;;;22.23;;
18322;SDS011;9287;49.456;11.064;2022-08-19T02:59:16;24.65;;;22.20;;
18322;SDS011;9287;49.456;11.064;2022-08-19T03:01:47;25.92;;;23.13;;
18322;SDS011;9287;49.456;11.064;2022-08-19T03:04:16;26.35;;;23.65;;
18322;SDS011;9287;49.456;11.064;2022-08-19T03:06:44;26.35;;;22.92;;
18322;SDS011;9287;49.456;11.064;2022-08-19T03:09:12;26.05;;;23.40;;
18322;SDS011;9287;49.456;11.064;2022-08-19T03:11:40;26.30;;;23.70;;
18322;SDS011;9287;49.456;11.064;2022-08-19T03:14:08;28.13;;;25.23;;
18322;SDS011;9287;49.456;11.064;2022-08-19T03:16:40;25.70;;;23.20;;
18322;SDS011;9287;49.456;11.064;2022-08-19T03:19:08;26.88;;;23.83;;
18322;SDS011;9287;49.456;11.064;2022-08-19T03:21:36;26.88;;;24.02;;
18322;SDS011;9287;49.456;11.064;2022-08-19T03:24:05;25.90;;;23.23;;
18322;SDS011;9287;49.456;11.064;2022-08-19T03:26:33;27.02;;;24.10;;
18322;SDS011;9287;49.456;11.064;2022-08-19T03:29:02;27.85;;;24.95;;
18322;SDS011;9287;49.456;11.064;2022-08-19T03:31:30;26.95;;;24.15;;
18322;SDS011;9287;49.456;11.064;2022-08-19T03:34:18;28.98;;;25.88;;
18322;SDS011;9287;49.456;11.064;2022-08-19T03:36:48;27.30;;;24.40;;
18322;SDS011;9287;49.456;11.064;2022-08-19T03:39:15;27.17;;;24.48;;
18322;SDS011;9287;49.456;11.064;2022-08-19T03:41:44;28.27;;;25.30;;
18322;SDS011;9287;49.456;11.064;2022-08-19T03:44:14;27.27;;;24.35;;
18322;SDS011;9287;49.456;11.064;2022-08-19T03:46:44;28.52;;;24.30;;
18322;SDS011;9287;49.456;11.064;2022-08-19T03:49:12;26.85;;;24.08;;
18322;SDS011;9287;49.456;11.064;2022-08-19T03:51:40;29.50;;;25.52;;
18322;SDS011;9287;49.456;11.064;2022-08-19T03:54:11;28.77;;;25.40;;
18322;SDS011;9287;49.456;11.064;2022-08-19T03:56:40;28.70;;;25.42;;
18322;SDS011;9287;49.456;11.064;2022-08-19T03:59:08;28.30;;;25.40;;
18322;SDS011;9287;49.456;11.064;2022-08-19T04:01:36;29.00;;;25.77;;
18322;SDS011;9287;49.456;11.064;2022-08-19T04:04:04;29.40;;;26.30;;
18322;SDS011;9287;49.456;11.064;2022-08-19T04:06:35;28.85;;;25.77;;
18322;SDS011;9287;49.456;11.064;2022-08-19T04:09:09;28.95;;;25.30;;
18322;SDS011;9287;49.456;11.064;2022-08-19T04:11:39;28.55;;;25.45;;
18322;SDS011;9287;49.456;11.064;2022-08-19T04:14:09;30.27;;;25.48;;
18322;SDS011;9287;49.456;11.064;2022-08-19T04:16:37;29.23;;;26.02;;
18322;SDS011;9287;49.456;11.064;2022-08-19T04:19:05;27.90;;;24.95;;
18322;SDS011;9287;49.456;11.064;2022-08-19T04:21:33;30.42;;;27.15;;
18322;SDS011;9287;49.456;11.064;2022-08-19T04:24:01;30.58;;;27.33;;
18322;SDS011;9287;49.456;11.064;2022-08-19T04:26:30;29.17;;;25.92;;
18322;SDS011;9287;49.456;11.064;2022-08-19T04:29:00;30.80;;;26.75;;
18322;SDS011;9287;49.456;11.064;2022-08-19T04:31:29;30.70;;;26.98;;
18322;SDS011;9287;49.456;11.064;2022-08-19T04:33:59;30.75;;;27.13;;
18322;SDS011;9287;49.456;11.064;2022-08-19T04:36:28;34.17;;;28.38;;
18322;SDS011;9287;49.456;11.064;2022-08-19T04:38:56;30.83;;;26.35;;
18322;SDS011;9287;49.456;11.064;2022-08-19T04:41:24;30.60;;;26.25;;
18322;SDS011;9287;49.456;11.064;2022-08-19T04:44:11;34.05;;;27.63;;
18322;SDS011;9287;49.456;11.064;2022-08-19T04:46:39;30.00;;;25.70;;
18322;SDS011;9287;49.456;11.064;2022-08-19T04:49:17;30.92;;;26.38;;
18322;SDS011;9287;49.456;11.064;2022-08-19T04:51:46;30.08;;;26.50;;
18322;SDS011;9287;49.456;11.064;2022-08-19T04:54:15;34.85;;;28.40;;
18322;SDS011;9287;49.456;11.064;2022-08-19T04:57:03;28.90;;;25.80;;
18322;SDS011;9287;49.456;11.064;2022-08-19T04:59:35;30.20;;;26.92;;
18322;SDS011;9287;49.456;11.064;2022-08-19T05:02:03;31.30;;;25.95;;
18322;SDS011;9287;49.456;11.064;2022-08-19T05:04:31;31.08;;;27.17;;
18322;SDS011;9287;49.456;11.064;2022-08-19T05:07:00;28.92;;;25.80;;
18322;SDS011;9287;49.456;11.064;2022-08-19T05:09:28;33.40;;;27.08;;
18322;SDS011;9287;49.456;11.064;2022-08-19T05:12:16;32.13;;;28.05;;
18322;SDS011;9287;49.456;11.064;2022-08-19T05:14:45;33.03;;;27.98;;
18322;SDS011;9287;49.456;11.064;2022-08-19T05:17:13;33.38;;;28.58;;
18322;SDS011;9287;49.456;11.064;2022-08-19T05:20:01;30.88;;;27.40;;
18322;SDS011;9287;49.456;11.064;2022-08-19T05:22:47;31.80;;;26.60;;
18322;SDS011;9287;49.456;11.064;2022-08-19T05:25:19;33.72;;;28.55;;
18322;SDS011;9287;49.456;11.064;2022-08-19T05:27:48;29.85;;;25.75;;
18322;SDS011;9287;49.456;11.064;2022-08-19T05:30:17;31.75;;;25.20;;
18322;SDS011;9287;49.456;11.064;2022-08-19T05:32:59;32.28;;;26.98;;
18322;SDS011;9287;49.456;11.064;2022-08-19T05:35:26;31.67;;;28.23;;
18322;SDS011;9287;49.456;11.064;2022-08-19T05:38:00;30.15;;;26.63;;
18322;SDS011;9287;49.456;11.064;2022-08-19T05:40:27;29.83;;;25.27;;
18322;SDS011;9287;49.456;11.064;2022-08-19T05:42:55;28.10;;;24.52;;
18322;SDS011;9287;49.456;11.064;2022-08-19T05:45:24;28.25;;;25.25;;
18322;SDS011;9287;49.456;11.064;2022-08-19T05:47:52;28.70;;;24.75;;
18322;SDS011;9287;49.456;11.064;2022-08-19T05:50:20;29.67;;;25.38;;
18322;SDS011;9287;49.456;11.064;2022-08-19T05:52:47;29.27;;;25.98;;
18322;SDS011;9287;49.456;11.064;2022-08-19T05:55:15;30.48;;;25.80;;
18322;SDS011;9287;49.456;11.064;2022-08-19T05:57:46;30.38;;;25.67;;
18322;SDS011;9287;49.456;11.064;2022-08-19T06:00:14;26.92;;;24.05;;
18322;SDS011;9287;49.456;11.064;2022-08-19T06:02:42;31.67;;;24.95;;
18322;SDS011;9287;49.456;11.064;2022-08-19T06:05:10;27.75;;;24.88;;
18322;SDS011;9287;49.456;11.064;2022-08-19T06:07:38;27.50;;;23.48;;
18322;SDS011;9287;49.456;11.064;2022-08-19T06:10:07;31.10;;;26.65;;
18322;SDS011;9287;49.456;11.064;2022-08-19T06:12:35;25.50;;;22.25;;
18322;SDS011;9287;49.456;11.064;2022-08-19T06:15:04;28.35;;;24.63;;
18322;SDS011;9287;49.456;11.064;2022-08-19T06:17:32;25.38;;;22.70;;
18322;SDS011;9287;49.456;11.064;2022-08-19T06:20:02;25.80;;;22.88;;
18322;SDS011;9287;49.456;11.064;2022-08-19T06:22:30;26.08;;;23.38;;
18322;SDS011;9287;49.456;11.064;2022-08-19T06:24:58;24.98;;;22.27;;
18322;SDS011;9287;49.456;11.064;2022-08-19T06:27:25;24.73;;;22.08;;
18322;SDS011;9287;49.456;11.064;2022-08-19T06:29:53;24.08;;;21.48;;
18322;SDS011;9287;49.456;11.064;2022-08-19T06:32:20;23.45;;;21.05;;
18322;SDS011;9287;49.456;11.064;2022-08-19T06:34:48;24.63;;;21.92;;
18322;SDS011;9287;49.456;11.064;2022-08-19T06:37:17;23.98;;;21.35;;
18322;SDS011;9287;49.456;11.064;2022-08-19T06:39:44;23.42;;;20.75;;
18322;SDS011;9287;49.456;11.064;2022-08-19T06:42:12;24.70;;;21.80;;
18322;SDS011;9287;49.456;11.064;2022-08-19T06:44:43;25.42;;;22.73;;
18322;SDS011;9287;49.456;11.064;2022-08-19T06:47:14;24.67;;;21.83;;
18322;SDS011;9287;49.456;11.064;2022-08-19T06:49:54;25.15;;;22.45;;
18322;SDS011;9287;49.456;11.064;2022-08-19T06:52:29;24.50;;;21.88;;
18322;SDS011;9287;49.456;11.064;2022-08-19T06:54:59;25.42;;;22.83;;
18322;SDS011;9287;49.456;11.064;2022-08-19T06:57:31;25.92;;;23.13;;
18322;SDS011;9287;49.456;11.064;2022-08-19T06:59:58;24.08;;;21.02;;
18322;SDS011;9287;49.456;11.064;2022-08-19T07:02:27;22.90;;;20.50;;
18322;SDS011;9287;49.456;11.064;2022-08-19T07:04:54;18.90;;;16.92;;
18322;SDS011;9287;49.456;11.064;2022-08-19T07:07:24;16.17;;;14.57;;
18322;SDS011;9287;49.456;11.064;2022-08-19T07:09:53;15.48;;;14.07;;
18322;SDS011;9287;49.456;11.064;2022-08-19T07:12:25;13.70;;;12.50;;
18322;SDS011;9287;49.456;11.064;2022-08-19T07:14:55;14.43;;;13.02;;
18322;SDS011;9287;49.456;11.064;2022-08-19T07:17:23;14.02;;;12.63;;
18322;SDS011;9287;49.456;11.064;2022-08-19T07:19:51;14.95;;;13.52;;
18322;SDS011;9287;49.456;11.064;2022-08-19T07:22:20;15.05;;;13.65;;
18322;SDS011;9287;49.456;11.064;2022-08-19T07:24:49;16.95;;;15.25;;
18322;SDS011;9287;49.456;11.064;2022-08-19T07:27:18;13.68;;;12.48;;
18322;SDS011;9287;49.456;11.064;2022-08-19T07:29:51;15.70;;;14.15;;
18322;SDS011;9287;49.456;11.064;2022-08-19T07:32:23;15.20;;;13.80;;
18322;SDS011;9287;49.456;11.064;2022-08-19T07:34:52;15.00;;;13.68;;
18322;SDS011;9287;49.456;11.064;2022-08-19T07:37:21;16.52;;;14.88;;
18322;SDS011;9287;49.456;11.064;2022-08-19T07:39:49;15.70;;;14.10;;
18322;SDS011;9287;49.456;11.064;2022-08-19T07:42:16;16.15;;;14.60;;
18322;SDS011;9287;49.456;11.064;2022-08-19T07:44:48;15.25;;;13.75;;
18322;SDS011;9287;49.456;11.064;2022-08-19T07:47:16;15.27;;;13.82;;
18322;SDS011;9287;49.456;11.064;2022-08-19T07:50:06;14.70;;;13.30;;
18322;SDS011;9287;49.456;11.064;2022-08-19T07:52:34;15.98;;;14.35;;
18322;SDS011;9287;49.456;11.064;2022-08-19T07:55:02;14.65;;;13.40;;
18322;SDS011;9287;49.456;11.064;2022-08-19T07:57:30;16.98;;;15.38;;
18322;SDS011;9287;49.456;11.064;2022-08-19T07:59:59;17.23;;;15.23;;
18322;SDS011;9287;49.456;11.064;2022-08-19T08:02:27;15.23;;;13.73;;
18322;SDS011;9287;49.456;11.064;2022-08-19T08:04:54;16.58;;;14.88;;
18322;SDS011;9287;49.456;11.064;2022-08-19T08:07:39;16.40;;;14.80;;
18322;SDS011;9287;49.456;11.064;2022-08-19T08:10:24;16.92;;;15.13;;
18322;SDS011;9287;49.456;11.064;2022-08-19T08:12:52;16.27;;;14.68;;
18322;SDS011;9287;49.456;11.064;2022-08-19T08:15:37;16.80;;;15.15;;
18322;SDS011;9287;49.456;11.064;2022-08-19T08:18:09;16.60;;;14.98;;
18322;SDS011;9287;49.456;11.064;2022-08-19T08:20:36;17.25;;;15.68;;
18322;SDS011;9287;49.456;11.064;2022-08-19T08:23:04;16.15;;;14.50;;
18322;SDS011;9287;49.456;11.064;2022-08-19T08:25:52;16.20;;;14.40;;
18322;SDS011;9287;49.456;11.064;2022-08-19T08:28:21;17.13;;;15.43;;
18322;SDS011;9287;49.456;11.064;2022-08-19T08:30:50;19.23;;;16.67;;
18322;SDS011;9287;49.456;11.064;2022-08-19T08:33:18;18.90;;;16.95;;
18322;SDS011;9287;49.456;11.064;2022-08-19T08:36:00;17.67;;;15.55;;
18322;SDS011;9287;49.456;11.064;2022-08-19T08:38:29;20.00;;;17.15;;
18322;SDS011;9287;49.456;11.064;2022-08-19T08:41:06;29.40;;;22.35;;
18322;SDS011;9287;49.456;11.064;2022-08-19T08:43:37;23.90;;;21.42;;
18322;SDS011;9287;49.456;11.064;2022-08-19T08:46:10;25.45;;;22.55;;
18322;SDS011;9287;49.456;11.064;2022-08-19T08:48:44;27.88;;;24.23;;
18322;SDS011;9287;49.456;11.064;2022-08-19T08:51:18;26.90;;;23.02;;
18322;SDS011;9287;49.456;11.064;2022-08-19T08:53:48;23.90;;;21.33;;
18322;SDS011;9287;49.456;11.064;2022-08-19T08:56:21;27.70;;;22.30;;
18322;SDS011;9287;49.456;11.064;2022-08-19T08:58:51;28.45;;;23.25;;
18322;SDS011;9287;49.456;11.064;2022-08-19T09:01:23;27.13;;;22.50;;
18322;SDS011;9287;49.456;11.064;2022-08-19T09:03:56;24.42;;;21.40;;
18322;SDS011;9287;49.456;11.064;2022-08-19T09:06:31;28.20;;;23.23;;
18322;SDS011;9287;49.456;11.064;2022-08-19T09:09:01;25.60;;;22.80;;
18322;SDS011;9287;49.456;11.064;2022-08-19T09:11:40;24.33;;;21.77;;
18322;SDS011;9287;49.456;11.064;2022-08-19T09:14:14;27.40;;;21.77;;
18322;SDS011;9287;49.456;11.064;2022-08-19T09:17:08;24.52;;;21.80;;
18322;SDS011;9287;49.456;11.064;2022-08-19T09:19:46;23.95;;;20.55;;
18322;SDS011;9287;49.456;11.064;2022-08-19T09:22:15;23.88;;;21.42;;
18322;SDS011;9287;49.456;11.064;2022-08-19T09:24:51;23.52;;;21.02;;
18322;SDS011;9287;49.456;11.064;2022-08-19T09:27:19;23.95;;;20.33;;
18322;SDS011;9287;49.456;11.064;2022-08-19T09:30:09;22.65;;;20.08;;
18322;SDS011;9287;49.456;11.064;2022-08-19T09:32:38;21.70;;;18.90;;
18322;SDS011;9287;49.456;11.064;2022-08-19T09:35:08;21.30;;;18.10;;
18322;SDS011;9287;49.456;11.064;2022-08-19T09:37:37;21.63;;;19.30;;
18322;SDS011;9287;49.456;11.064;2022-08-19T09:40:06;19.88;;;17.75;;
18322;SDS011;9287;49.456;11.064;2022-08-19T09:42:37;22.33;;;19.08;;
18322;SDS011;9287;49.456;11.064;2022-08-19T09:45:15;21.42;;;18.85;;
18322;SDS011;9287;49.456;11.064;2022-08-19T09:47:45;21.73;;;19.42;;
18322;SDS011;9287;49.456;11.064;2022-08-19T09:50:13;22.88;;;20.42;;
18322;SDS011;9287;49.456;11.064;2022-08-19T09:52:42;24.55;;;21.92;;
18322;SDS011;9287;49.456;11.064;2022-08-19T09:55:22;22.65;;;19.60;;
18322;SDS011;9287;49.456;11.064;2022-08-19T09:57:57;25.17;;;21.67;;
18322;SDS011;9287;49.456;11.064;2022-08-19T10:00:25;24.58;;;20.30;;
18322;SDS011;9287;49.456;11.064;2022-08-19T10:02:54;25.35;;;20.85;;
18322;SDS011;9287;49.456;11.064;2022-08-19T10:05:22;26.55;;;23.13;;
18322;SDS011;9287;49.456;11.064;2022-08-19T10:08:08;28.92;;;24.33;;
18322;SDS011;9287;49.456;11.064;2022-08-19T10:10:39;28.40;;;24.55;;
18322;SDS011;9287;49.456;11.064;2022-08-19T10:13:12;25.92;;;22.58;;
18322;SDS011;9287;49.456;11.064;2022-08-19T10:15:39;26.00;;;22.27;;
18322;SDS011;9287;49.456;11.064;2022-08-19T10:18:14;25.48;;;21.38;;
18322;SDS011;9287;49.456;11.064;2022-08-19T10:20:44;25.17;;;20.88;;
18322;SDS011;9287;49.456;11.064;2022-08-19T10:23:17;27.85;;;22.05;;
18322;SDS011;9287;49.456;11.064;2022-08-19T10:25:45;25.45;;;21.65;;
18322;SDS011;9287;49.456;11.064;2022-08-19T10:28:13;25.40;;;21.73;;
18322;SDS011;9287;49.456;11.064;2022-08-19T10:30:44;22.30;;;20.00;;
18322;SDS011;9287;49.456;11.064;2022-08-19T10:33:12;21.25;;;18.95;;
18322;SDS011;9287;49.456;11.064;2022-08-19T10:35:41;20.98;;;18.08;;
18322;SDS011;9287;49.456;11.064;2022-08-19T10:38:22;21.30;;;18.48;;
18322;SDS011;9287;49.456;11.064;2022-08-19T10:40:57;22.52;;;19.58;;
18322;SDS011;9287;49.456;11.064;2022-08-19T10:43:25;20.20;;;18.17;;
18322;SDS011;9287;49.456;11.064;2022-08-19T10:45:52;21.98;;;18.58;;
18322;SDS011;9287;49.456;11.064;2022-08-19T10:48:22;19.77;;;17.25;;
18322;SDS011;9287;49.456;11.064;2022-08-19T10:50:51;21.40;;;19.02;;
18322;SDS011;9287;49.456;11.064;2022-08-19T10:53:48;19.35;;;17.40;;
18322;SDS011;9287;49.456;11.064;2022-08-19T10:56:16;21.05;;;18.80;;
18322;SDS011;9287;49.456;11.064;2022-08-19T10:59:02;21.65;;;19.00;;
18322;SDS011;9287;49.456;11.064;2022-08-19T11:01:30;21.10;;;18.90;;
18322;SDS011;9287;49.456;11.064;2022-08-19T11:03:59;21.17;;;18.85;;
18322;SDS011;9287;49.456;11.064;2022-08-19T11:06:29;20.50;;;18.48;;
18322;SDS011;9287;49.456;11.064;2022-08-19T11:08:58;19.25;;;17.25;;
18322;SDS011;9287;49.456;11.064;2022-08-19T11:11:26;20.15;;;18.05;;
18322;SDS011;9287;49.456;11.064;2022-08-19T11:13:55;20.23;;;17.98;;
18322;SDS011;9287;49.456;11.064;2022-08-19T11:16:23;19.02;;;17.08;;
18322;SDS011;9287;49.456;11.064;2022-08-19T11:18:53;19.60;;;17.70;;
18322;SDS011;9287;49.456;11.064;2022-08-19T11:21:25;19.92;;;17.95;;
18322;SDS011;9287;49.456;11.064;2022-08-19T11:23:57;19.40;;;17.15;;
18322;SDS011;9287;49.456;11.064;2022-08-19T11:26:25;18.73;;;16.83;;
18322;SDS011;9287;49.456;11.064;2022-08-19T11:28:53;19.63;;;17.55;;
18322;SDS011;9287;49.456;11.064;2022-08-19T11:31:22;18.38;;;16.48;;
18322;SDS011;9287;49.456;11.064;2022-08-19T11:33:55;17.50;;;15.77;;
18322;SDS011;9287;49.456;11.064;2022-08-19T11:36:23;18.17;;;16.38;;
18322;SDS011;9287;49.456;11.064;2022-08-19T11:38:51;18.85;;;16.85;;
18322;SDS011;9287;49.456;11.064;2022-08-19T11:41:20;17.63;;;15.82;;
18322;SDS011;9287;49.456;11.064;2022-08-19T11:43:49;17.85;;;16.13;;
18322;SDS011;9287;49.456;11.064;2022-08-19T11:46:19;16.35;;;14.77;;
18322;SDS011;9287;49.456;11.064;2022-08-19T11:48:47;18.50;;;16.73;;
18322;SDS011;9287;49.456;11.064;2022-08-19T11:51:17;18.23;;;16.33;;
18322;SDS011;9287;49.456;11.064;2022-08-19T11:53:46;19.10;;;17.20;;
18322;SDS011;9287;49.456;11.064;2022-08-19T11:56:13;20.77;;;18.70;;
18322;SDS011;9287;49.456;11.064;2022-08-19T11:58:42;21.05;;;19.00;;
18322;SDS011;9287;49.456;11.064;2022-08-19T12:01:10;22.05;;;19.65;;
18322;SDS011;9287;49.456;11.064;2022-08-19T12:03:38;24.23;;;21.45;;
18322;SDS011;9287;49.456;11.064;2022-08-19T12:06:07;22.05;;;19.75;;
18322;SDS011;9287;49.456;11.064;2022-08-19T12:08:35;23.67;;;21.23;;
18322;SDS011;9287;49.456;11.064;2022-08-19T12:11:03;22.10;;;19.88;;
18322;SDS011;9287;49.456;11.064;2022-08-19T12:13:33;22.88;;;20.48;;
18322;SDS011;9287;49.456;11.064;2022-08-19T12:16:08;22.45;;;20.08;;
18322;SDS011;9287;49.456;11.064;2022-08-19T12:18:37;20.30;;;18.35;;
18322;SDS011;9287;49.456;11.064;2022-08-19T12:21:04;22.15;;;19.83;;
18322;SDS011;9287;49.456;11.064;2022-08-19T12:23:32;21.77;;;19.48;;
18322;SDS011;9287;49.456;11.064;2022-08-19T12:26:02;21.55;;;19.30;;
18322;SDS011;9287;49.456;11.064;2022-08-19T12:28:30;20.73;;;18.60;;
18322;SDS011;9287;49.456;11.064;2022-08-19T12:30:57;24.20;;;21.67;;
18322;SDS011;9287;49.456;11.064;2022-08-19T12:33:26;26.20;;;23.02;;
18322;SDS011;9287;49.456;11.064;2022-08-19T12:35:54;22.98;;;20.58;;
18322;SDS011;9287;49.456;11.064;2022-08-19T12:38:22;25.10;;;22.13;;
18322;SDS011;9287;49.456;11.064;2022-08-19T12:40:50;23.17;;;20.88;;
18322;SDS011;9287;49.456;11.064;2022-08-19T12:43:24;22.38;;;20.15;;
18322;SDS011;9287;49.456;11.064;2022-08-19T12:45:52;22.80;;;20.55;;
18322;SDS011;9287;49.456;11.064;2022-08-19T12:48:21;24.33;;;21.83;;
18322;SDS011;9287;49.456;11.064;2022-08-19T12:51:00;23.30;;;20.63;;
18322;SDS011;9287;49.456;11.064;2022-08-19T12:53:29;23.95;;;21.48;;
18322;SDS011;9287;49.456;11.064;2022-08-19T12:55:56;25.23;;;22.75;;
18322;SDS011;9287;49.456;11.064;2022-08-19T12:58:26;24.05;;;21.67;;
18322;SDS011;9287;49.456;11.064;2022-08-19T13:00:54;23.92;;;21.52;;
18322;SDS011;9287;49.456;11.064;2022-08-19T13:03:22;26.52;;;23.80;;
18322;SDS011;9287;49.456;11.064;2022-08-19T13:05:55;26.38;;;23.65;;
18322;SDS011;9287;49.456;11.064;2022-08-19T13:08:24;27.23;;;24.50;;
18322;SDS011;9287;49.456;11.064;2022-08-19T13:10:51;27.35;;;24.55;;
18322;SDS011;9287;49.456;11.064;2022-08-19T13:13:19;27.33;;;24.42;;
18322;SDS011;9287;49.456;11.064;2022-08-19T13:15:47;26.58;;;23.77;;
18322;SDS011;9287;49.456;11.064;2022-08-19T13:18:15;27.13;;;24.40;;
18322;SDS011;9287;49.456;11.064;2022-08-19T13:20:43;26.30;;;23.80;;
18322;SDS011;9287;49.456;11.064;2022-08-19T13:23:18;27.40;;;24.55;;
18322;SDS011;9287;49.456;11.064;2022-08-19T13:25:56;28.67;;;25.35;;
18322;SDS011;9287;49.456;11.064;2022-08-19T13:28:23;28.73;;;25.60;;
18322;SDS011;9287;49.456;11.064;2022-08-19T13:30:54;28.52;;;25.73;;
18322;SDS011;9287;49.456;11.064;2022-08-19T13:33:39;26.10;;;23.10;;
18322;SDS011;9287;49.456;11.064;2022-08-19T13:36:07;27.95;;;24.17;;
18322;SDS011;9287;49.456;11.064;2022-08-19T13:38:36;28.00;;;24.75;;
18322;SDS011;9287;49.456;11.064;2022-08-19T13:41:05;29.88;;;26.05;;
18322;SDS011;9287;49.456;11.064;2022-08-19T13:43:39;27.48;;;24.60;;
18322;SDS011;9287;49.456;11.064;2022-08-19T13:46:08;29.23;;;26.17;;
18322;SDS011;9287;49.456;11.064;2022-08-19T13:48:36;29.90;;;26.88;;
18322;SDS011;9287;49.456;11.064;2022-08-19T13:51:04;29.23;;;26.13;;
18322;SDS011;9287;49.456;11.064;2022-08-19T13:53:32;32.63;;;29.27;;
18322;SDS011;9287;49.456;11.064;2022-08-19T13:55:59;32.40;;;28.98;;
18322;SDS011;9287;49.456;11.064;2022-08-19T13:58:28;27.67;;;24.77;;
18322;SDS011;9287;49.456;11.064;2022-08-19T14:00:59;33.03;;;29.67;;
18322;SDS011;9287;49.456;11.064;2022-08-19T14:03:27;29.45;;;26.38;;
18322;SDS011;9287;49.456;11.064;2022-08-19T14:05:54;30.65;;;27.42;;
18322;SDS011;9287;49.456;11.064;2022-08-19T14:08:22;30.13;;;27.00;;
18322;SDS011;9287;49.456;11.064;2022-08-19T14:10:50;30.55;;;27.38;;
18322;SDS011;9287;49.456;11.064;2022-08-19T14:13:19;34.13;;;28.88;;
18322;SDS011;9287;49.456;11.064;2022-08-19T14:15:48;31.38;;;27.98;;
18322;SDS011;9287;49.456;11.064;2022-08-19T14:18:17;33.45;;;29.88;;
18322;SDS011;9287;49.456;11.064;2022-08-19T14:20:44;30.48;;;27.55;;
18322;SDS011;9287;49.456;11.064;2022-08-19T14:23:12;25.67;;;23.27;;
18322;SDS011;9287;49.456;11.064;2022-08-19T14:25:40;24.88;;;22.17;;
18322;SDS011;9287;49.456;11.064;2022-08-19T14:28:07;20.83;;;18.63;;
18322;SDS011;9287;49.456;11.064;2022-08-19T14:30:35;21.20;;;19.00;;
18322;SDS011;9287;49.456;11.064;2022-08-19T14:33:05;20.17;;;17.73;;
18322;SDS011;9287;49.456;11.064;2022-08-19T14:35:33;17.20;;;15.43;;
18322;SDS011;9287;49.456;11.064;2022-08-19T14:38:02;14.13;;;12.73;;
18322;SDS011;9287;49.456;11.064;2022-08-19T14:40:31;13.02;;;11.80;;